Terminal Aerodrome Forecast
Issued by NWS

Home | Current Version | Previous Version | Text Only | Print | Product List | Glossary Off
Versions: 1 2 3 4 5 6 7 8 9 10 11 12 13 14 15 16 17 18 19

000
FTUS43 KABR 252203 AAA
TAFMBG
TAF AMD
KMBG 252203Z 2522/2618 VRB05KT P6SM -SHRA BKN050
     FM260200 27007KT P6SM SCT150
     FM261600 25009KT P6SM FEW200=

USA.gov is the U.S. government's official web portal to all federal, state and local government web resources and services.